Time;durP1;ratioP1;P1;durP2;ratioP2;P2;SDS_P1;SDS_P2;PMS_P1;PMS_P2;Temp;Humidity;BMP_temperature;BMP_pressure;BME280_temperature;BME280_humidity;BME280_pressure;Samples;Min_cycle;Max_cycle;Signal;HPM_P1;HPM_P2
2021/01/20 00:01:40;;;;;;;1999.90;999.90;;;;;;;7.53;77.61;100049.28;15626295;28;20505;-65
2021/01/20 00:09:13;;;;;;;1999.90;999.90;;;;;;;7.48;78.00;100057.75;15683039;28;20049;-65
2021/01/20 00:16:45;;;;;;;1999.90;999.90;;;;;;;7.26;78.93;100046.84;15684906;28;20049;-63
2021/01/20 00:24:18;;;;;;;1999.90;999.90;;;;;;;7.49;77.16;100048.28;15649431;28;20502;-63
2021/01/20 00:31:49;;;;;;;1999.90;999.90;;;;;;;7.35;77.95;100048.47;15642473;28;20477;-64
2021/01/20 00:39:22;;;;;;;1999.90;999.90;;;;;;;7.26;78.40;100050.41;15656150;28;20132;-65
2021/01/20 00:46:53;;;;;;;1999.90;999.90;;;;;;;7.11;78.30;100046.19;15662736;28;20049;-66
2021/01/20 00:54:26;;;;;;;1999.90;999.90;;;;;;;7.15;77.69;100063.81;15648451;28;20102;-66
2021/01/20 01:01:58;;;;;;;1999.90;999.90;;;;;;;7.09;77.73;100069.88;15622764;28;20048;-64
2021/01/20 01:09:39;;;;;;;1999.90;999.90;;;;;;;7.04;77.87;100064.47;15647218;28;20049;-67
2021/01/20 01:17:29;;;;;;;1999.90;999.90;;;;;;;6.83;78.61;100062.31;15620217;28;20453;-65
2021/01/20 01:25:06;;;;;;;1999.90;999.90;;;;;;;6.57;78.85;100056.72;15634384;28;20080;-66
2021/01/20 01:32:40;;;;;;;1999.90;999.90;;;;;;;6.83;77.85;100059.53;15639723;28;20521;-65
2021/01/20 01:40:18;;;;;;;1999.90;999.90;;;;;;;6.70;78.03;100056.91;15624749;28;20040;-66
2021/01/20 01:48:12;;;;;;;1999.90;999.90;;;;;;;6.56;78.21;100049.53;15651990;28;20046;-65
2021/01/20 01:55:47;;;;;;;1999.90;999.90;;;;;;;6.77;77.96;100046.97;15640804;28;20426;-65
2021/01/20 02:03:43;;;;;;;1999.90;999.90;;;;;;;6.87;77.58;100049.41;15599857;28;20119;-64
2021/01/20 02:11:33;;;;;;;1999.90;999.90;;;;;;;6.86;77.96;100064.44;15637810;28;20065;-64
2021/01/20 02:19:10;;;;;;;1999.90;999.90;;;;;;;6.93;77.46;100061.19;15632718;28;20075;-65
2021/01/20 02:26:55;;;;;;;1999.90;999.90;;;;;;;6.89;77.87;100052.72;15618699;28;20064;-63
2021/01/20 02:34:39;;;;;;;1999.90;999.90;;;;;;;6.78;77.88;100053.34;15621588;28;20050;-64
2021/01/20 02:42:11;;;;;;;1999.90;999.90;;;;;;;6.70;77.85;100063.28;15635242;28;20049;-64
2021/01/20 02:49:50;;;;;;;1999.90;999.90;;;;;;;6.73;77.21;100057.06;15622207;28;20052;-62
2021/01/20 02:57:24;;;;;;;1999.90;999.90;;;;;;;6.75;77.21;100054.78;15635419;28;20046;-64
2021/01/20 03:05:06;;;;;;;1999.90;999.90;;;;;;;6.97;76.00;100064.94;15624798;28;20127;-65
2021/01/20 03:12:38;;;;;;;1999.90;999.90;;;;;;;6.71;76.87;100055.78;15632175;28;20038;-64
2021/01/20 03:20:11;;;;;;;1999.90;999.90;;;;;;;6.74;75.78;100055.94;15653508;28;20045;-64
2021/01/20 03:27:43;;;;;;;1999.90;999.90;;;;;;;6.79;75.45;100063.28;15632432;28;20046;-65
2021/01/20 03:35:16;;;;;;;1999.90;999.90;;;;;;;6.63;74.98;100058.19;15656568;28;20045;-65
2021/01/20 03:42:47;;;;;;;1999.90;999.90;;;;;;;6.67;74.29;100050.06;15664386;28;20064;-64
2021/01/20 03:50:20;;;;;;;1999.90;999.90;;;;;;;6.53;74.13;100041.03;15643782;28;20490;-62
2021/01/20 03:57:51;;;;;;;1999.90;999.90;;;;;;;6.38;74.31;100027.66;15657564;28;20042;-63
2021/01/20 04:05:24;;;;;;;1999.90;999.90;;;;;;;6.50;73.70;100013.97;15671009;28;20036;-65
2021/01/20 04:12:55;;;;;;;1999.90;999.90;;;;;;;6.31;73.08;100006.75;15645651;28;20160;-63
2021/01/20 04:20:28;;;;;;;1999.90;999.90;;;;;;;6.41;73.00;99993.75;15647088;28;20045;-62
2021/01/20 04:28:00;;;;;;;1999.90;999.90;;;;;;;6.27;72.59;99994.69;15667975;28;20060;-63
2021/01/20 04:35:32;;;;;;;1999.90;999.90;;;;;;;6.54;71.51;99998.31;15625214;28;20060;-62
2021/01/20 04:43:03;;;;;;;1999.90;999.90;;;;;;;6.43;71.61;99983.16;15643306;28;20107;-63
2021/01/20 04:50:37;;;;;;;1999.90;999.90;;;;;;;6.52;70.61;99959.84;15651477;28;20368;-63
2021/01/20 04:58:10;;;;;;;1999.90;999.90;;;;;;;6.52;70.99;99965.38;15651886;28;20049;-63
2021/01/20 05:05:42;;;;;;;1999.90;999.90;;;;;;;6.68;70.67;99967.72;15634225;28;20049;-63
2021/01/20 05:13:24;;;;;;;1999.90;999.90;;;;;;;6.60;70.90;99967.38;15622380;28;20115;-63
2021/01/20 05:20:56;;;;;;;1999.90;999.90;;;;;;;6.64;70.66;99967.53;15616961;28;20119;-63
2021/01/20 05:28:29;;;;;;;1999.90;999.90;;;;;;;6.39;71.39;99960.00;15625677;28;20050;-66
2021/01/20 05:36:07;;;;;;;1999.90;999.90;;;;;;;6.21;72.11;99953.59;15632893;28;20042;-64
2021/01/20 05:43:38;;;;;;;1999.90;999.90;;;;;;;6.20;71.39;99960.28;15659325;28;20503;-64
2021/01/20 05:51:12;;;;;;;1999.90;999.90;;;;;;;6.07;71.75;99960.09;15661395;28;20041;-63
2021/01/20 05:58:44;;;;;;;1999.90;999.90;;;;;;;5.95;72.40;99959.91;15634534;28;20483;-64
2021/01/20 06:06:18;;;;;;;1999.90;999.90;;;;;;;6.07;71.91;99964.81;15639411;28;20041;-64
2021/01/20 06:13:53;;;;;;;1999.90;999.90;;;;;;;6.13;71.61;99965.47;15618465;28;20128;-63
2021/01/20 06:21:27;;;;;;;1999.90;999.90;;;;;;;6.23;70.86;99963.22;15662183;28;20041;-63
2021/01/20 06:29:02;;;;;;;1999.90;999.90;;;;;;;6.03;70.75;99963.81;15665036;28;20044;-63
2021/01/20 06:36:38;;;;;;;1999.90;999.90;;;;;;;5.92;70.75;99965.22;15620948;28;20050;-64
2021/01/20 06:44:11;;;;;;;1999.90;999.90;;;;;;;6.02;70.12;99970.47;15645997;28;20523;-64
2021/01/20 06:52:07;;;;;;;1999.90;999.90;;;;;;;6.03;70.11;99974.88;15645549;28;20049;-63
2021/01/20 06:59:39;;;;;;;1999.90;999.90;;;;;;;6.20;70.07;99982.44;15598070;28;20152;-63
2021/01/20 07:07:13;;;;;;;1999.90;999.90;;;;;;;6.04;71.21;99970.97;15599558;28;20103;-64
2021/01/20 07:14:45;;;;;;;1999.90;999.90;;;;;;;5.97;71.23;99974.22;15598993;28;20398;-65
2021/01/20 07:22:18;;;;;;;1999.90;999.90;;;;;;;6.00;71.50;99968.03;15612708;28;20103;-64
2021/01/20 07:29:50;;;;;;;1999.90;999.90;;;;;;;6.20;70.64;99963.88;15611064;28;20382;-64
2021/01/20 07:37:23;;;;;;;1999.90;999.90;;;;;;;5.98;70.94;99952.88;15629270;28;20525;-62
2021/01/20 07:44:55;;;;;;;1999.90;999.90;;;;;;;6.19;70.39;99964.19;15628256;28;20092;-63
2021/01/20 07:52:28;;;;;;;1999.90;999.90;;;;;;;6.44;69.81;99962.59;15610207;28;20048;-63
2021/01/20 08:00:02;;;;;;;1999.90;999.90;;;;;;;6.62;68.63;99964.25;15627361;28;20050;-63
2021/01/20 08:07:44;;;;;;;1999.90;999.90;;;;;;;6.86;66.86;99967.38;15627321;28;20039;-62
2021/01/20 08:15:17;;;;;;;1999.90;999.90;;;;;;;7.18;66.02;99968.00;15627016;28;20388;-62
2021/01/20 08:22:50;;;;;;;1999.90;999.90;;;;;;;7.24;65.36;99958.38;15608312;28;20214;-65
2021/01/20 08:30:31;;;;;;;1999.90;999.90;;;;;;;7.38;64.40;99952.63;15636232;28;20514;-64
2021/01/20 08:38:06;;;;;;;1999.90;999.90;;;;;;;7.63;64.05;99962.03;15718279;28;20056;-59
2021/01/20 08:45:42;;;;;;;1999.90;999.90;;;;;;;7.80;63.34;99968.31;15732704;28;20056;-62
2021/01/20 08:53:28;;;;;;;1999.90;999.90;;;;;;;7.81;63.01;99955.25;15683789;28;20086;-63
2021/01/20 09:01:24;;;;;;;1999.90;999.90;;;;;;;7.83;62.53;99936.31;15719040;28;20036;-61
2021/01/20 09:09:03;;;;;;;1999.90;999.90;;;;;;;7.97;62.26;99939.66;15729158;28;20052;-64
2021/01/20 09:16:36;;;;;;;1999.90;999.90;;;;;;;8.37;61.26;99948.47;15728009;28;20073;-64
2021/01/20 09:24:14;;;;;;;1999.90;999.90;;;;;;;8.58;60.55;99945.72;15728492;28;20394;-64
2021/01/20 09:31:48;;;;;;;1999.90;999.90;;;;;;;9.03;58.40;99944.19;15744584;28;20044;-64
2021/01/20 09:39:23;;;;;;;1999.90;999.90;;;;;;;9.80;57.28;99946.16;15743210;28;20123;-63
2021/01/20 09:46:57;;;;;;;1999.90;999.90;;;;;;;10.26;55.48;99954.44;15726197;28;20079;-64
2021/01/20 09:54:36;;;;;;;1999.90;999.90;;;;;;;10.62;54.54;99937.66;15726748;28;20516;-64
2021/01/20 10:02:14;;;;;;;1999.90;999.90;;;;;;;10.84;55.31;99932.75;15744051;28;20098;-63
2021/01/20 10:09:58;;;;;;;1999.90;999.90;;;;;;;10.78;53.94;99925.78;15725898;28;20379;-64
2021/01/20 10:17:30;;;;;;;1999.90;999.90;;;;;;;10.19;55.51;99904.00;15725540;28;20055;-63
2021/01/20 10:25:05;;;;;;;1999.90;999.90;;;;;;;9.78;54.84;99881.59;15743763;28;20429;-65
2021/01/20 10:32:37;;;;;;;1999.90;999.90;;;;;;;9.85;55.44;99883.81;15744051;28;20041;-64
2021/01/20 10:40:11;;;;;;;1999.90;999.90;;;;;;;9.75;55.05;99887.88;15743972;28;20055;-65
2021/01/20 10:47:43;;;;;;;1999.90;999.90;;;;;;;9.82;55.13;99885.34;15743314;28;20056;-65
2021/01/20 10:55:18;;;;;;;1999.90;999.90;;;;;;;9.77;55.95;99887.53;15754383;28;20059;-65
2021/01/20 11:02:50;;;;;;;1999.90;999.90;;;;;;;9.74;55.07;99883.47;15756323;28;20453;-66
2021/01/20 11:10:22;;;;;;;1999.90;999.90;;;;;;;10.08;55.53;99882.16;15754096;28;20050;-66
2021/01/20 11:17:54;;;;;;;1999.90;999.90;;;;;;;10.15;55.10;99881.59;15753651;28;20036;-66
2021/01/20 11:25:27;;;;;;;1999.90;999.90;;;;;;;10.00;56.16;99877.53;15755632;28;20381;-65
2021/01/20 11:32:59;;;;;;;1999.90;999.90;;;;;;;9.88;56.68;99862.78;15752893;28;20037;-64
2021/01/20 11:40:33;;;;;;;1999.90;999.90;;;;;;;10.17;56.30;99864.50;15751471;28;20072;-62
2021/01/20 11:48:05;;;;;;;;;;;;;;;10.25;55.61;99852.44;15754126;28;20122;-66
2021/01/20 11:55:38;;;;;;;1999.90;999.90;;;;;;;10.47;55.65;99859.47;15751752;28;19920;-66
2021/01/20 12:03:11;;;;;;;1999.90;999.90;;;;;;;10.54;54.90;99854.13;15730828;28;20036;-65
2021/01/20 12:10:43;;;;;;;1999.90;999.90;;;;;;;10.39;53.16;99828.59;15688861;28;20048;-64
2021/01/20 12:18:15;;;;;;;1999.90;999.90;;;;;;;10.79;52.71;99824.94;15731968;28;20033;-65
2021/01/20 12:25:47;;;;;;;1999.90;999.90;;;;;;;10.86;52.23;99814.00;15748379;28;20055;-66
2021/01/20 12:33:19;;;;;;;1999.90;999.90;;;;;;;11.13;52.30;99812.31;15729415;28;20525;-65
2021/01/20 12:40:52;;;;;;;1999.90;999.90;;;;;;;10.98;52.25;99796.38;15750183;28;20072;-65
2021/01/20 12:48:24;;;;;;;1999.90;999.90;;;;;;;11.69;50.58;99787.00;15729056;28;20045;-65
2021/01/20 12:55:56;;;;;;;1999.90;999.90;;;;;;;11.74;49.49;99786.72;15749270;28;20552;-66
2021/01/20 13:03:28;;;;;;;1999.90;999.90;;;;;;;11.56;50.36;99786.28;15706926;28;20045;-64
2021/01/20 13:11:00;;;;;;;1999.90;999.90;;;;;;;11.72;50.28;99788.25;15746562;28;20049;-66
2021/01/20 13:18:34;;;;;;;1999.90;999.90;;;;;;;11.32;51.43;99774.50;15726096;28;20102;-66
2021/01/20 13:26:07;;;;;;;1999.90;999.90;;;;;;;10.91;51.52;99773.84;15740082;28;20123;-63
2021/01/20 13:33:38;;;;;;;1999.90;999.90;;;;;;;10.85;51.59;99789.25;15741405;28;20048;-64
2021/01/20 13:41:11;;;;;;;1999.90;999.90;;;;;;;11.02;52.45;99776.91;15743037;28;20052;-66
2021/01/20 13:48:42;;;;;;;1999.90;999.90;;;;;;;10.92;52.59;99781.03;15741156;28;20497;-65
2021/01/20 13:56:15;;;;;;;1999.90;999.90;;;;;;;11.36;52.64;99775.38;15704193;28;20486;-64
2021/01/20 14:03:46;;;;;;;1999.90;999.90;;;;;;;10.97;51.81;99784.41;15619056;28;20053;-65
2021/01/20 14:11:20;;;;;;;1999.90;999.90;;;;;;;10.91;51.98;99794.19;15643071;28;20506;-65
2021/01/20 14:18:51;;;;;;;1999.90;999.90;;;;;;;10.39;54.60;99797.09;15616934;28;20052;-63
2021/01/20 14:26:24;;;;;;;1999.90;999.90;;;;;;;10.00;57.14;99788.34;15632512;28;20049;-68
2021/01/20 14:33:56;;;;;;;1999.90;999.90;;;;;;;10.25;56.69;99777.19;15650978;28;20071;-61
2021/01/20 14:41:28;;;;;;;1999.90;999.90;;;;;;;10.46;55.53;99782.56;15619181;28;20052;-60
2021/01/20 14:49:00;;;;;;;1999.90;999.90;;;;;;;10.47;55.01;99782.19;15652488;28;20041;-63
2021/01/20 14:56:33;;;;;;;1999.90;999.90;;;;;;;10.51;54.48;99777.53;15617225;28;20376;-59
2021/01/20 15:04:05;;;;;;;1999.90;999.90;;;;;;;10.53;54.57;99771.63;15617551;28;20037;-65
2021/01/20 15:11:37;;;;;;;1999.90;999.90;;;;;;;10.57;53.88;99780.88;15617718;28;20045;-66
2021/01/20 15:19:09;;;;;;;1999.90;999.90;;;;;;;10.58;53.87;99786.09;15617494;28;20124;-66
2021/01/20 15:26:42;;;;;;;1999.90;999.90;;;;;;;10.54;54.07;99778.81;15622322;28;20045;-65
2021/01/20 15:34:14;;;;;;;1999.90;999.90;;;;;;;10.54;53.85;99782.41;15681280;28;20055;-66
2021/01/20 15:41:46;;;;;;;1999.90;999.90;;;;;;;10.56;53.83;99776.47;15729805;28;20059;-65
2021/01/20 15:49:18;;;;;;;1999.90;999.90;;;;;;;10.46;54.06;99780.59;15749300;28;20413;-66
2021/01/20 15:56:51;;;;;;;1999.90;999.90;;;;;;;10.38;54.52;99782.34;15749953;28;20098;-64
2021/01/20 16:04:28;;;;;;;1999.90;999.90;;;;;;;10.40;54.25;99782.00;15730920;28;20040;-65
2021/01/20 16:12:01;;;;;;;1999.90;999.90;;;;;;;10.27;54.06;99784.00;15713975;28;20040;-66
2021/01/20 16:19:32;;;;;;;1999.90;999.90;;;;;;;10.30;54.68;99779.69;15730715;22;20408;-59
2021/01/20 16:27:05;;;;;;;1999.90;999.90;;;;;;;10.14;54.83;99787.97;15664161;28;20076;-61
2021/01/20 16:34:39;;;;;;;1999.90;999.90;;;;;;;9.78;55.31;99778.50;15661716;28;20059;-59
2021/01/20 16:42:11;;;;;;;1999.90;999.90;;;;;;;9.56;55.32;99770.66;15682973;28;20138;-61
2021/01/20 16:49:43;;;;;;;1999.90;999.90;;;;;;;9.67;55.28;99768.19;15664354;28;20810;-60
2021/01/20 16:57:16;;;;;;;1999.90;999.90;;;;;;;9.58;55.04;99776.69;15683968;28;20069;-57
2021/01/20 17:04:47;;;;;;;1999.90;999.90;;;;;;;9.28;55.81;99769.75;15681531;28;20065;-57
2021/01/20 17:12:20;;;;;;;1999.90;999.90;;;;;;;9.12;55.38;99766.81;15681001;28;20482;-61
2021/01/20 17:19:51;;;;;;;1999.90;999.90;;;;;;;9.06;55.74;99771.78;15680001;28;20084;-61
2021/01/20 17:27:24;;;;;;;1999.90;999.90;;;;;;;9.11;55.57;99765.19;15645283;28;20531;-60
2021/01/20 17:34:56;;;;;;;1999.90;999.90;;;;;;;9.03;55.54;99758.56;15680104;28;20068;-57
2021/01/20 17:42:29;;;;;;;1999.90;999.90;;;;;;;9.21;55.18;99759.97;15657887;28;20513;-57
2021/01/20 17:50:00;;;;;;;1999.90;999.90;;;;;;;9.28;55.02;99755.81;15677832;28;20140;-59
2021/01/20 17:57:33;;;;;;;1999.90;999.90;;;;;;;9.42;55.13;99747.94;15655560;28;20044;-58
2021/01/20 18:05:05;;;;;;;1999.90;999.90;;;;;;;9.46;54.79;99741.28;15674581;28;20079;-60
2021/01/20 18:12:39;;;;;;;1999.90;999.90;;;;;;;9.49;54.83;99743.41;15640868;28;20128;-57
2021/01/20 18:20:12;;;;;;;1999.90;999.90;;;;;;;9.45;54.72;99739.69;15608707;28;20500;-60
2021/01/20 18:27:45;;;;;;;1999.90;999.90;;;;;;;9.49;55.00;99737.84;15604009;28;20144;-62
2021/01/20 18:35:17;;;;;;;1999.90;999.90;;;;;;;9.31;55.17;99749.56;15675640;28;20135;-60
2021/01/20 18:42:49;;;;;;;1999.90;999.90;;;;;;;9.35;55.43;99744.91;15632228;28;20060;-57
2021/01/20 18:50:21;;;;;;;1999.90;999.90;;;;;;;9.25;55.50;99741.41;15662102;28;20139;-61
2021/01/20 18:57:54;;;;;;;1999.90;999.90;;;;;;;9.04;55.97;99739.91;15646290;28;20049;-59
2021/01/20 19:05:26;;;;;;;1999.90;999.90;;;;;;;9.01;55.96;99743.38;15657101;28;20037;-56
2021/01/20 19:12:58;;;;;;;1999.90;999.90;;;;;;;9.15;56.10;99729.94;15675700;28;20473;-57
2021/01/20 19:20:30;;;;;;;1999.90;999.90;;;;;;;8.93;56.59;99718.09;15649217;28;20053;-57
2021/01/20 19:28:04;;;;;;;1999.90;999.90;;;;;;;8.99;56.19;99729.81;15645648;28;20116;-60
2021/01/20 19:35:35;;;;;;;1999.90;999.90;;;;;;;8.89;56.18;99708.00;15641081;28;20125;-62
2021/01/20 19:43:11;;;;;;;1999.90;999.90;;;;;;;8.83;56.78;99693.50;15630523;28;20064;-62
2021/01/20 19:50:42;;;;;;;1999.90;999.90;;;;;;;8.61;57.46;99680.84;15665166;28;20581;-60
2021/01/20 19:58:15;;;;;;;1999.90;999.90;;;;;;;8.64;57.43;99682.13;15681825;28;20137;-64
2021/01/20 20:05:47;;;;;;;1999.90;999.90;;;;;;;8.63;57.42;99686.06;15653378;28;20029;-61
2021/01/20 20:13:20;;;;;;;1999.90;999.90;;;;;;;8.78;57.18;99668.72;15646375;28;20049;-63
2021/01/20 20:20:52;;;;;;;1999.90;999.90;;;;;;;8.90;56.80;99674.28;15642029;28;20041;-63
2021/01/20 20:28:26;;;;;;;1999.90;999.90;;;;;;;9.16;56.37;99653.63;15638884;28;20052;-61
2021/01/20 20:35:59;;;;;;;1999.90;999.90;;;;;;;9.10;57.00;99639.16;15645915;28;20065;-64
2021/01/20 20:43:31;;;;;;;1999.90;999.90;;;;;;;9.32;56.31;99687.94;15621536;28;20106;-63
2021/01/20 20:51:03;;;;;;;1999.90;999.90;;;;;;;9.00;56.55;99680.56;15661964;28;20049;-60
2021/01/20 20:58:35;;;;;;;1999.90;999.90;;;;;;;9.09;56.68;99661.78;15636147;28;20103;-61
2021/01/20 21:06:07;;;;;;;1999.90;999.90;;;;;;;9.07;56.58;99664.91;15659204;28;20049;-62
2021/01/20 21:13:40;;;;;;;1999.90;999.90;;;;;;;9.14;56.68;99676.25;15627922;28;20041;-60
2021/01/20 21:21:12;;;;;;;1999.90;999.90;;;;;;;9.00;57.00;99686.91;15641566;28;20461;-60
2021/01/20 21:28:45;;;;;;;1999.90;999.90;;;;;;;8.89;56.58;99674.63;15602655;28;20068;-59
2021/01/20 21:36:17;;;;;;;1999.90;999.90;;;;;;;8.70;57.46;99661.28;15668445;28;20045;-59
2021/01/20 21:43:49;;;;;;;1999.90;999.90;;;;;;;8.45;58.09;99654.06;15673328;28;20075;-59
2021/01/20 21:51:21;;;;;;;1999.90;999.90;;;;;;;8.24;58.55;99640.22;15621074;28;20060;-58
2021/01/20 21:58:54;;;;;;;1999.90;999.90;;;;;;;8.27;58.77;99642.28;15647564;28;20397;-62
2021/01/20 22:06:26;;;;;;;1999.90;999.90;;;;;;;8.42;58.01;99638.88;15626852;28;20070;-62
2021/01/20 22:13:59;;;;;;;1999.90;999.90;;;;;;;8.51;57.62;99636.81;15656547;28;20064;-63
2021/01/20 22:21:30;;;;;;;1999.90;999.90;;;;;;;8.53;57.47;99637.25;15693538;22;20056;-58
2021/01/20 22:29:03;;;;;;;1999.90;999.90;;;;;;;8.52;57.33;99627.31;15768650;28;20041;-56
2021/01/20 22:36:35;;;;;;;1999.90;999.90;;;;;;;8.38;57.20;99637.94;15735694;28;20083;-58
2021/01/20 22:44:08;;;;;;;1999.90;999.90;;;;;;;8.51;57.33;99620.13;15735993;28;20072;-57
2021/01/20 22:51:40;;;;;;;1999.90;999.90;;;;;;;8.24;57.37;99613.22;15747344;28;20040;-56
2021/01/20 22:59:12;;;;;;;1999.90;999.90;;;;;;;8.16;57.65;99602.22;15674124;28;20037;-56
2021/01/20 23:06:44;;;;;;;1999.90;999.90;;;;;;;8.30;56.87;99594.34;15676142;28;20052;-59
2021/01/20 23:14:16;;;;;;;1999.90;999.90;;;;;;;8.14;57.05;99587.84;15747156;28;20454;-58
2021/01/20 23:21:48;;;;;;;1999.90;999.90;;;;;;;8.29;56.55;99568.53;15746328;28;20139;-59
2021/01/20 23:29:21;;;;;;;1999.90;999.90;;;;;;;8.32;56.53;99565.06;15746120;28;20052;-59
2021/01/20 23:36:53;;;;;;;1999.90;999.90;;;;;;;8.18;56.76;99561.81;15745242;28;20044;-58
2021/01/20 23:44:25;;;;;;;1999.90;999.90;;;;;;;8.22;56.55;99564.69;15722964;28;20060;-58
2021/01/20 23:51:57;;;;;;;1999.90;999.90;;;;;;;8.24;56.62;99556.84;15726991;28;20394;-59
2021/01/20 23:59:29;;;;;;;1999.90;999.90;;;;;;;8.16;56.89;99555.78;15743551;28;20512;-58
